sensor_id;sensor_type;location;lat;lon;timestamp;P1;durP1;ratioP1;P2;durP2;ratioP2
37677;SDS011;23517;50.390;8.616;2023-08-12T00:00:10;8.57;;;2.65;;
37677;SDS011;23517;50.390;8.616;2023-08-12T00:02:38;8.80;;;2.70;;
37677;SDS011;23517;50.390;8.616;2023-08-12T00:05:07;4.32;;;2.70;;
37677;SDS011;23517;50.390;8.616;2023-08-12T00:07:34;6.95;;;2.63;;
37677;SDS011;23517;50.390;8.616;2023-08-12T00:10:01;6.20;;;3.05;;
37677;SDS011;23517;50.390;8.616;2023-08-12T00:12:33;7.78;;;2.80;;
37677;SDS011;23517;50.390;8.616;2023-08-12T00:15:01;5.82;;;2.90;;
37677;SDS011;23517;50.390;8.616;2023-08-12T00:17:30;4.20;;;2.80;;
37677;SDS011;23517;50.390;8.616;2023-08-12T00:19:57;7.63;;;3.10;;
37677;SDS011;23517;50.390;8.616;2023-08-12T00:22:24;4.53;;;2.75;;
37677;SDS011;23517;50.390;8.616;2023-08-12T00:24:51;4.05;;;3.00;;
37677;SDS011;23517;50.390;8.616;2023-08-12T00:27:18;6.00;;;2.80;;
37677;SDS011;23517;50.390;8.616;2023-08-12T00:29:45;7.43;;;2.95;;
37677;SDS011;23517;50.390;8.616;2023-08-12T00:32:11;7.50;;;2.97;;
37677;SDS011;23517;50.390;8.616;2023-08-12T00:34:38;6.63;;;2.92;;
37677;SDS011;23517;50.390;8.616;2023-08-12T00:37:05;5.50;;;2.90;;
37677;SDS011;23517;50.390;8.616;2023-08-12T00:39:31;8.20;;;2.95;;
37677;SDS011;23517;50.390;8.616;2023-08-12T00:41:58;6.25;;;3.10;;
37677;SDS011;23517;50.390;8.616;2023-08-12T00:44:25;5.85;;;2.70;;
37677;SDS011;23517;50.390;8.616;2023-08-12T00:46:51;4.25;;;2.85;;
37677;SDS011;23517;50.390;8.616;2023-08-12T00:49:19;6.28;;;2.95;;
37677;SDS011;23517;50.390;8.616;2023-08-12T00:51:45;6.32;;;2.90;;
37677;SDS011;23517;50.390;8.616;2023-08-12T00:54:15;3.90;;;3.00;;
37677;SDS011;23517;50.390;8.616;2023-08-12T00:56:43;6.60;;;2.88;;
37677;SDS011;23517;50.390;8.616;2023-08-12T00:59:09;4.43;;;2.70;;
37677;SDS011;23517;50.390;8.616;2023-08-12T01:01:38;4.63;;;2.97;;
37677;SDS011;23517;50.390;8.616;2023-08-12T01:04:09;4.03;;;3.00;;
37677;SDS011;23517;50.390;8.616;2023-08-12T01:06:37;7.78;;;3.30;;
37677;SDS011;23517;50.390;8.616;2023-08-12T01:09:04;11.32;;;2.70;;
37677;SDS011;23517;50.390;8.616;2023-08-12T01:14:23;5.75;;;2.75;;
37677;SDS011;23517;50.390;8.616;2023-08-12T01:17:03;6.78;;;3.10;;
37677;SDS011;23517;50.390;8.616;2023-08-12T01:19:34;8.27;;;3.33;;
37677;SDS011;23517;50.390;8.616;2023-08-12T01:22:04;6.40;;;3.00;;
37677;SDS011;23517;50.390;8.616;2023-08-12T01:24:39;8.60;;;2.80;;
37677;SDS011;23517;50.390;8.616;2023-08-12T01:27:11;4.43;;;2.50;;
37677;SDS011;23517;50.390;8.616;2023-08-12T01:29:44;12.32;;;3.15;;
37677;SDS011;23517;50.390;8.616;2023-08-12T01:35:07;5.53;;;3.05;;
37677;SDS011;23517;50.390;8.616;2023-08-12T01:38:17;7.25;;;3.30;;
37677;SDS011;23517;50.390;8.616;2023-08-12T01:40:46;5.20;;;3.10;;
37677;SDS011;23517;50.390;8.616;2023-08-12T01:43:15;4.05;;;2.75;;
37677;SDS011;23517;50.390;8.616;2023-08-12T01:45:42;6.72;;;3.03;;
37677;SDS011;23517;50.390;8.616;2023-08-12T01:48:10;4.10;;;2.53;;
37677;SDS011;23517;50.390;8.616;2023-08-12T01:50:36;7.95;;;3.40;;
37677;SDS011;23517;50.390;8.616;2023-08-12T01:53:03;3.65;;;2.97;;
37677;SDS011;23517;50.390;8.616;2023-08-12T01:55:30;9.55;;;3.15;;
37677;SDS011;23517;50.390;8.616;2023-08-12T01:57:57;5.85;;;3.03;;
37677;SDS011;23517;50.390;8.616;2023-08-12T02:00:24;5.80;;;3.00;;
37677;SDS011;23517;50.390;8.616;2023-08-12T02:02:50;5.68;;;3.08;;
37677;SDS011;23517;50.390;8.616;2023-08-12T02:05:17;5.25;;;3.00;;
37677;SDS011;23517;50.390;8.616;2023-08-12T02:07:44;3.20;;;2.83;;
37677;SDS011;23517;50.390;8.616;2023-08-12T02:10:11;3.58;;;2.88;;
37677;SDS011;23517;50.390;8.616;2023-08-12T02:12:38;9.73;;;3.03;;
37677;SDS011;23517;50.390;8.616;2023-08-12T02:15:04;5.43;;;3.00;;
37677;SDS011;23517;50.390;8.616;2023-08-12T02:17:32;5.35;;;3.17;;
37677;SDS011;23517;50.390;8.616;2023-08-12T02:19:59;6.90;;;3.17;;
37677;SDS011;23517;50.390;8.616;2023-08-12T02:22:25;6.28;;;3.15;;
37677;SDS011;23517;50.390;8.616;2023-08-12T02:24:52;5.90;;;3.47;;
37677;SDS011;23517;50.390;8.616;2023-08-12T02:27:19;6.30;;;3.22;;
37677;SDS011;23517;50.390;8.616;2023-08-12T02:29:46;3.38;;;3.00;;
37677;SDS011;23517;50.390;8.616;2023-08-12T02:32:12;6.13;;;3.22;;
37677;SDS011;23517;50.390;8.616;2023-08-12T02:34:39;7.50;;;2.90;;
37677;SDS011;23517;50.390;8.616;2023-08-12T02:37:06;5.32;;;3.55;;
37677;SDS011;23517;50.390;8.616;2023-08-12T02:39:33;4.28;;;3.25;;
37677;SDS011;23517;50.390;8.616;2023-08-12T02:41:59;3.83;;;2.97;;
37677;SDS011;23517;50.390;8.616;2023-08-12T02:44:26;7.00;;;3.45;;
37677;SDS011;23517;50.390;8.616;2023-08-12T02:46:54;4.93;;;3.13;;
37677;SDS011;23517;50.390;8.616;2023-08-12T02:49:21;3.47;;;3.00;;
37677;SDS011;23517;50.390;8.616;2023-08-12T02:51:47;7.75;;;3.90;;
37677;SDS011;23517;50.390;8.616;2023-08-12T02:54:14;6.63;;;3.70;;
37677;SDS011;23517;50.390;8.616;2023-08-12T02:56:41;6.18;;;3.58;;
37677;SDS011;23517;50.390;8.616;2023-08-12T02:59:07;8.13;;;3.60;;
37677;SDS011;23517;50.390;8.616;2023-08-12T03:01:34;3.90;;;3.08;;
37677;SDS011;23517;50.390;8.616;2023-08-12T03:04:01;7.47;;;3.30;;
37677;SDS011;23517;50.390;8.616;2023-08-12T03:06:27;4.85;;;3.20;;
37677;SDS011;23517;50.390;8.616;2023-08-12T03:08:54;7.32;;;3.95;;
37677;SDS011;23517;50.390;8.616;2023-08-12T03:11:21;5.82;;;3.85;;
37677;SDS011;23517;50.390;8.616;2023-08-12T03:13:47;5.70;;;3.20;;
37677;SDS011;23517;50.390;8.616;2023-08-12T03:16:16;12.77;;;4.32;;
37677;SDS011;23517;50.390;8.616;2023-08-12T03:18:43;5.25;;;4.18;;
37677;SDS011;23517;50.390;8.616;2023-08-12T03:21:10;6.82;;;4.32;;
37677;SDS011;23517;50.390;8.616;2023-08-12T03:23:37;7.00;;;4.93;;
37677;SDS011;23517;50.390;8.616;2023-08-12T03:26:04;9.35;;;5.13;;
37677;SDS011;23517;50.390;8.616;2023-08-12T03:28:31;12.10;;;5.18;;
37677;SDS011;23517;50.390;8.616;2023-08-12T03:30:57;8.20;;;5.30;;
37677;SDS011;23517;50.390;8.616;2023-08-12T03:33:24;10.90;;;5.93;;
37677;SDS011;23517;50.390;8.616;2023-08-12T03:35:51;11.50;;;5.68;;
37677;SDS011;23517;50.390;8.616;2023-08-12T03:38:20;14.70;;;5.57;;
37677;SDS011;23517;50.390;8.616;2023-08-12T03:40:47;12.40;;;5.78;;
37677;SDS011;23517;50.390;8.616;2023-08-12T03:43:14;9.50;;;5.85;;
37677;SDS011;23517;50.390;8.616;2023-08-12T03:45:43;11.10;;;6.10;;
37677;SDS011;23517;50.390;8.616;2023-08-12T03:48:11;7.20;;;6.22;;
37677;SDS011;23517;50.390;8.616;2023-08-12T03:50:38;13.02;;;6.45;;
37677;SDS011;23517;50.390;8.616;2023-08-12T03:53:05;8.95;;;5.90;;
37677;SDS011;23517;50.390;8.616;2023-08-12T03:55:32;13.57;;;6.75;;
37677;SDS011;23517;50.390;8.616;2023-08-12T03:58:00;13.45;;;6.15;;
37677;SDS011;23517;50.390;8.616;2023-08-12T04:00:27;12.30;;;7.07;;
37677;SDS011;23517;50.390;8.616;2023-08-12T04:02:54;9.63;;;5.80;;
37677;SDS011;23517;50.390;8.616;2023-08-12T04:05:21;11.23;;;6.20;;
37677;SDS011;23517;50.390;8.616;2023-08-12T04:07:48;15.45;;;6.97;;
37677;SDS011;23517;50.390;8.616;2023-08-12T04:10:14;10.70;;;7.25;;
37677;SDS011;23517;50.390;8.616;2023-08-12T04:12:42;11.00;;;6.80;;
37677;SDS011;23517;50.390;8.616;2023-08-12T04:15:09;14.95;;;7.78;;
37677;SDS011;23517;50.390;8.616;2023-08-12T04:17:36;12.75;;;7.95;;
37677;SDS011;23517;50.390;8.616;2023-08-12T04:20:03;8.85;;;6.70;;
37677;SDS011;23517;50.390;8.616;2023-08-12T04:22:32;10.43;;;6.97;;
37677;SDS011;23517;50.390;8.616;2023-08-12T04:25:00;12.30;;;7.32;;
37677;SDS011;23517;50.390;8.616;2023-08-12T04:27:28;11.38;;;7.10;;
37677;SDS011;23517;50.390;8.616;2023-08-12T04:29:55;12.15;;;8.15;;
37677;SDS011;23517;50.390;8.616;2023-08-12T04:32:21;12.57;;;7.30;;
37677;SDS011;23517;50.390;8.616;2023-08-12T04:34:48;11.65;;;7.07;;
37677;SDS011;23517;50.390;8.616;2023-08-12T04:37:15;11.30;;;6.90;;
37677;SDS011;23517;50.390;8.616;2023-08-12T04:39:42;12.25;;;7.82;;
37677;SDS011;23517;50.390;8.616;2023-08-12T04:42:10;11.38;;;7.82;;
37677;SDS011;23517;50.390;8.616;2023-08-12T04:44:36;10.00;;;6.80;;
37677;SDS011;23517;50.390;8.616;2023-08-12T04:47:03;31.85;;;16.70;;
37677;SDS011;23517;50.390;8.616;2023-08-12T04:49:31;18.67;;;12.38;;
37677;SDS011;23517;50.390;8.616;2023-08-12T04:51:58;12.95;;;9.18;;
37677;SDS011;23517;50.390;8.616;2023-08-12T04:54:25;17.23;;;11.27;;
37677;SDS011;23517;50.390;8.616;2023-08-12T04:56:53;17.75;;;10.30;;
37677;SDS011;23517;50.390;8.616;2023-08-12T04:59:19;10.80;;;7.95;;
37677;SDS011;23517;50.390;8.616;2023-08-12T05:01:46;16.25;;;9.07;;
37677;SDS011;23517;50.390;8.616;2023-08-12T05:04:29;14.85;;;8.35;;
37677;SDS011;23517;50.390;8.616;2023-08-12T05:06:56;19.50;;;9.48;;
37677;SDS011;23517;50.390;8.616;2023-08-12T05:09:23;15.93;;;9.73;;
37677;SDS011;23517;50.390;8.616;2023-08-12T05:11:49;19.02;;;10.38;;
37677;SDS011;23517;50.390;8.616;2023-08-12T05:14:16;16.73;;;9.90;;
37677;SDS011;23517;50.390;8.616;2023-08-12T05:16:43;10.93;;;8.30;;
37677;SDS011;23517;50.390;8.616;2023-08-12T05:19:09;11.35;;;7.38;;
37677;SDS011;23517;50.390;8.616;2023-08-12T05:21:36;13.35;;;8.15;;
37677;SDS011;23517;50.390;8.616;2023-08-12T05:24:03;10.02;;;7.47;;
37677;SDS011;23517;50.390;8.616;2023-08-12T05:26:30;11.23;;;8.57;;
37677;SDS011;23517;50.390;8.616;2023-08-12T05:28:59;12.18;;;8.18;;
37677;SDS011;23517;50.390;8.616;2023-08-12T05:31:25;11.43;;;7.97;;
37677;SDS011;23517;50.390;8.616;2023-08-12T05:33:53;14.27;;;8.13;;
37677;SDS011;23517;50.390;8.616;2023-08-12T05:36:20;9.80;;;6.57;;
37677;SDS011;23517;50.390;8.616;2023-08-12T05:38:46;10.90;;;7.72;;
37677;SDS011;23517;50.390;8.616;2023-08-12T05:41:13;12.07;;;7.85;;
37677;SDS011;23517;50.390;8.616;2023-08-12T05:43:40;8.38;;;6.57;;
37677;SDS011;23517;50.390;8.616;2023-08-12T05:46:06;12.93;;;8.00;;
37677;SDS011;23517;50.390;8.616;2023-08-12T05:48:33;10.25;;;7.45;;
37677;SDS011;23517;50.390;8.616;2023-08-12T05:51:00;9.68;;;7.75;;
37677;SDS011;23517;50.390;8.616;2023-08-12T05:53:26;9.15;;;7.95;;
37677;SDS011;23517;50.390;8.616;2023-08-12T05:55:53;9.52;;;8.27;;
37677;SDS011;23517;50.390;8.616;2023-08-12T05:58:20;13.75;;;7.57;;
37677;SDS011;23517;50.390;8.616;2023-08-12T06:00:46;11.07;;;6.70;;
37677;SDS011;23517;50.390;8.616;2023-08-12T06:03:13;12.05;;;7.57;;
37677;SDS011;23517;50.390;8.616;2023-08-12T06:05:40;9.48;;;6.95;;
37677;SDS011;23517;50.390;8.616;2023-08-12T06:08:09;7.75;;;6.53;;
37677;SDS011;23517;50.390;8.616;2023-08-12T06:10:36;10.80;;;6.78;;
37677;SDS011;23517;50.390;8.616;2023-08-12T06:13:06;12.38;;;8.48;;
37677;SDS011;23517;50.390;8.616;2023-08-12T06:15:33;10.82;;;7.07;;
37677;SDS011;23517;50.390;8.616;2023-08-12T06:18:01;11.15;;;7.20;;
37677;SDS011;23517;50.390;8.616;2023-08-12T06:20:29;9.88;;;6.43;;
37677;SDS011;23517;50.390;8.616;2023-08-12T06:22:59;11.35;;;6.78;;
37677;SDS011;23517;50.390;8.616;2023-08-12T06:25:26;8.50;;;5.93;;
37677;SDS011;23517;50.390;8.616;2023-08-12T06:27:52;7.45;;;5.40;;
37677;SDS011;23517;50.390;8.616;2023-08-12T06:30:19;7.07;;;5.05;;
37677;SDS011;23517;50.390;8.616;2023-08-12T06:32:46;9.27;;;5.50;;
37677;SDS011;23517;50.390;8.616;2023-08-12T06:35:13;8.02;;;5.20;;
37677;SDS011;23517;50.390;8.616;2023-08-12T06:37:39;6.20;;;5.18;;
37677;SDS011;23517;50.390;8.616;2023-08-12T06:40:07;5.70;;;4.93;;
37677;SDS011;23517;50.390;8.616;2023-08-12T06:42:34;6.32;;;5.50;;
37677;SDS011;23517;50.390;8.616;2023-08-12T06:45:01;6.63;;;5.18;;
37677;SDS011;23517;50.390;8.616;2023-08-12T06:47:30;6.00;;;4.93;;
37677;SDS011;23517;50.390;8.616;2023-08-12T06:49:56;6.13;;;4.32;;
37677;SDS011;23517;50.390;8.616;2023-08-12T06:52:23;5.95;;;4.80;;
37677;SDS011;23517;50.390;8.616;2023-08-12T06:54:50;7.50;;;4.32;;
37677;SDS011;23517;50.390;8.616;2023-08-12T06:57:17;7.75;;;5.10;;
37677;SDS011;23517;50.390;8.616;2023-08-12T06:59:44;6.93;;;5.35;;
37677;SDS011;23517;50.390;8.616;2023-08-12T07:02:11;7.00;;;4.63;;
37677;SDS011;23517;50.390;8.616;2023-08-12T07:04:38;6.55;;;4.90;;
37677;SDS011;23517;50.390;8.616;2023-08-12T07:07:05;6.18;;;4.90;;
37677;SDS011;23517;50.390;8.616;2023-08-12T07:09:32;7.70;;;5.85;;
37677;SDS011;23517;50.390;8.616;2023-08-12T07:11:58;7.53;;;5.32;;
37677;SDS011;23517;50.390;8.616;2023-08-12T07:14:27;6.88;;;5.22;;
37677;SDS011;23517;50.390;8.616;2023-08-12T07:16:54;7.47;;;5.70;;
37677;SDS011;23517;50.390;8.616;2023-08-12T07:19:21;7.05;;;5.57;;
37677;SDS011;23517;50.390;8.616;2023-08-12T07:21:48;8.95;;;5.88;;
37677;SDS011;23517;50.390;8.616;2023-08-12T07:24:15;10.30;;;6.10;;
37677;SDS011;23517;50.390;8.616;2023-08-12T07:26:41;6.57;;;5.60;;
37677;SDS011;23517;50.390;8.616;2023-08-12T07:29:08;5.55;;;5.00;;
37677;SDS011;23517;50.390;8.616;2023-08-12T07:31:35;7.93;;;5.47;;
37677;SDS011;23517;50.390;8.616;2023-08-12T07:34:02;7.07;;;5.85;;
37677;SDS011;23517;50.390;8.616;2023-08-12T07:36:29;8.38;;;5.68;;
37677;SDS011;23517;50.390;8.616;2023-08-12T07:38:57;6.40;;;5.00;;
37677;SDS011;23517;50.390;8.616;2023-08-12T07:41:23;6.18;;;5.18;;
37677;SDS011;23517;50.390;8.616;2023-08-12T07:43:53;6.65;;;5.38;;
37677;SDS011;23517;50.390;8.616;2023-08-12T07:46:20;8.32;;;5.75;;
37677;SDS011;23517;50.390;8.616;2023-08-12T07:48:47;7.68;;;5.18;;
37677;SDS011;23517;50.390;8.616;2023-08-12T07:51:13;5.60;;;4.53;;
37677;SDS011;23517;50.390;8.616;2023-08-12T07:53:40;6.72;;;5.03;;
37677;SDS011;23517;50.390;8.616;2023-08-12T07:56:07;6.20;;;5.38;;
37677;SDS011;23517;50.390;8.616;2023-08-12T07:58:34;8.07;;;6.07;;
37677;SDS011;23517;50.390;8.616;2023-08-12T08:01:01;8.52;;;5.95;;
37677;SDS011;23517;50.390;8.616;2023-08-12T08:03:28;7.63;;;5.03;;
37677;SDS011;23517;50.390;8.616;2023-08-12T08:05:55;10.48;;;7.22;;
37677;SDS011;23517;50.390;8.616;2023-08-12T08:08:21;7.97;;;6.57;;
37677;SDS011;23517;50.390;8.616;2023-08-12T08:10:48;8.68;;;6.35;;
37677;SDS011;23517;50.390;8.616;2023-08-12T08:13:15;6.85;;;6.15;;
37677;SDS011;23517;50.390;8.616;2023-08-12T08:15:41;10.80;;;6.90;;
37677;SDS011;23517;50.390;8.616;2023-08-12T08:18:08;7.90;;;6.10;;
37677;SDS011;23517;50.390;8.616;2023-08-12T08:20:35;9.98;;;6.25;;
37677;SDS011;23517;50.390;8.616;2023-08-12T08:23:02;9.43;;;6.88;;
37677;SDS011;23517;50.390;8.616;2023-08-12T08:25:29;10.13;;;6.20;;
37677;SDS011;23517;50.390;8.616;2023-08-12T08:27:56;11.13;;;6.68;;
37677;SDS011;23517;50.390;8.616;2023-08-12T08:30:22;7.53;;;5.93;;
37677;SDS011;23517;50.390;8.616;2023-08-12T08:32:51;7.82;;;6.00;;
37677;SDS011;23517;50.390;8.616;2023-08-12T08:35:18;7.05;;;6.22;;
37677;SDS011;23517;50.390;8.616;2023-08-12T08:37:45;7.93;;;5.82;;
37677;SDS011;23517;50.390;8.616;2023-08-12T08:40:11;8.10;;;6.15;;
37677;SDS011;23517;50.390;8.616;2023-08-12T08:42:39;7.22;;;5.93;;
37677;SDS011;23517;50.390;8.616;2023-08-12T08:45:12;8.02;;;6.05;;
37677;SDS011;23517;50.390;8.616;2023-08-12T08:47:41;8.98;;;6.38;;
37677;SDS011;23517;50.390;8.616;2023-08-12T08:50:09;9.10;;;5.97;;
37677;SDS011;23517;50.390;8.616;2023-08-12T08:52:36;6.88;;;5.47;;
37677;SDS011;23517;50.390;8.616;2023-08-12T08:55:04;9.10;;;4.90;;
37677;SDS011;23517;50.390;8.616;2023-08-12T08:57:33;5.22;;;4.20;;
37677;SDS011;23517;50.390;8.616;2023-08-12T09:00:12;7.07;;;4.93;;
37677;SDS011;23517;50.390;8.616;2023-08-12T09:02:44;7.90;;;4.70;;
37677;SDS011;23517;50.390;8.616;2023-08-12T09:05:14;5.93;;;4.05;;
37677;SDS011;23517;50.390;8.616;2023-08-12T09:07:42;6.88;;;4.88;;
37677;SDS011;23517;50.390;8.616;2023-08-12T09:10:12;6.18;;;5.03;;
37677;SDS011;23517;50.390;8.616;2023-08-12T09:12:42;4.85;;;3.58;;
37677;SDS011;23517;50.390;8.616;2023-08-12T09:15:09;6.53;;;4.10;;
37677;SDS011;23517;50.390;8.616;2023-08-12T09:17:36;6.20;;;4.10;;
37677;SDS011;23517;50.390;8.616;2023-08-12T09:20:04;9.63;;;3.75;;
37677;SDS011;23517;50.390;8.616;2023-08-12T09:22:38;4.68;;;3.80;;
37677;SDS011;23517;50.390;8.616;2023-08-12T09:25:06;9.07;;;4.00;;
37677;SDS011;23517;50.390;8.616;2023-08-12T09:27:38;6.65;;;3.63;;
37677;SDS011;23517;50.390;8.616;2023-08-12T09:30:05;6.10;;;3.30;;
37677;SDS011;23517;50.390;8.616;2023-08-12T09:32:34;5.45;;;3.30;;
37677;SDS011;23517;50.390;8.616;2023-08-12T09:35:01;4.07;;;3.13;;
37677;SDS011;23517;50.390;8.616;2023-08-12T09:37:32;4.82;;;2.97;;
37677;SDS011;23517;50.390;8.616;2023-08-12T09:39:59;4.07;;;2.60;;
37677;SDS011;23517;50.390;8.616;2023-08-12T09:42:27;4.10;;;2.90;;
37677;SDS011;23517;50.390;8.616;2023-08-12T09:44:56;3.00;;;2.53;;
37677;SDS011;23517;50.390;8.616;2023-08-12T09:47:25;5.95;;;2.80;;
37677;SDS011;23517;50.390;8.616;2023-08-12T09:49:53;5.05;;;2.63;;
37677;SDS011;23517;50.390;8.616;2023-08-12T09:52:25;6.05;;;2.90;;
37677;SDS011;23517;50.390;8.616;2023-08-12T09:54:52;4.53;;;2.65;;
37677;SDS011;23517;50.390;8.616;2023-08-12T09:57:23;4.40;;;2.22;;
37677;SDS011;23517;50.390;8.616;2023-08-12T09:59:53;3.38;;;2.50;;
37677;SDS011;23517;50.390;8.616;2023-08-12T10:02:21;4.95;;;2.83;;
37677;SDS011;23517;50.390;8.616;2023-08-12T10:04:49;4.38;;;2.90;;
37677;SDS011;23517;50.390;8.616;2023-08-12T10:07:22;7.60;;;2.90;;
37677;SDS011;23517;50.390;8.616;2023-08-12T10:09:49;5.75;;;2.92;;
37677;SDS011;23517;50.390;8.616;2023-08-12T10:12:16;5.25;;;2.60;;
37677;SDS011;23517;50.390;8.616;2023-08-12T10:14:45;4.93;;;2.97;;
37677;SDS011;23517;50.390;8.616;2023-08-12T10:17:13;3.45;;;3.10;;
37677;SDS011;23517;50.390;8.616;2023-08-12T10:19:55;7.57;;;3.28;;
37677;SDS011;23517;50.390;8.616;2023-08-12T10:22:25;5.20;;;3.20;;
37677;SDS011;23517;50.390;8.616;2023-08-12T10:24:53;7.22;;;3.45;;
37677;SDS011;23517;50.390;8.616;2023-08-12T10:27:20;7.80;;;3.97;;
37677;SDS011;23517;50.390;8.616;2023-08-12T10:29:47;9.43;;;3.38;;
37677;SDS011;23517;50.390;8.616;2023-08-12T10:32:13;6.78;;;3.60;;
37677;SDS011;23517;50.390;8.616;2023-08-12T10:34:40;7.00;;;3.42;;
37677;SDS011;23517;50.390;8.616;2023-08-12T10:37:08;5.55;;;3.15;;
37677;SDS011;23517;50.390;8.616;2023-08-12T10:39:37;9.05;;;3.53;;
37677;SDS011;23517;50.390;8.616;2023-08-12T10:42:05;6.00;;;3.55;;
37677;SDS011;23517;50.390;8.616;2023-08-12T10:44:38;5.35;;;3.72;;
37677;SDS011;23517;50.390;8.616;2023-08-12T10:47:09;8.40;;;4.05;;
37677;SDS011;23517;50.390;8.616;2023-08-12T10:49:43;5.05;;;3.40;;
37677;SDS011;23517;50.390;8.616;2023-08-12T10:52:31;5.72;;;3.28;;
37677;SDS011;23517;50.390;8.616;2023-08-12T10:55:16;6.57;;;3.88;;
37677;SDS011;23517;50.390;8.616;2023-08-12T10:57:45;6.88;;;3.95;;
37677;SDS011;23517;50.390;8.616;2023-08-12T11:00:19;9.95;;;4.60;;
37677;SDS011;23517;50.390;8.616;2023-08-12T11:02:50;6.20;;;3.85;;
37677;SDS011;23517;50.390;8.616;2023-08-12T11:05:19;6.13;;;4.32;;
37677;SDS011;23517;50.390;8.616;2023-08-12T11:07:59;6.20;;;4.25;;
37677;SDS011;23517;50.390;8.616;2023-08-12T11:10:33;6.00;;;3.60;;
37677;SDS011;23517;50.390;8.616;2023-08-12T11:13:01;5.38;;;3.75;;
37677;SDS011;23517;50.390;8.616;2023-08-12T11:15:30;8.05;;;3.95;;
37677;SDS011;23517;50.390;8.616;2023-08-12T11:18:15;3.97;;;3.40;;
37677;SDS011;23517;50.390;8.616;2023-08-12T11:20:44;4.10;;;3.00;;
37677;SDS011;23517;50.390;8.616;2023-08-12T11:23:11;4.40;;;3.10;;
37677;SDS011;23517;50.390;8.616;2023-08-12T11:25:39;5.15;;;2.78;;
37677;SDS011;23517;50.390;8.616;2023-08-12T11:28:08;3.30;;;2.80;;
37677;SDS011;23517;50.390;8.616;2023-08-12T11:30:35;4.03;;;2.63;;
37677;SDS011;23517;50.390;8.616;2023-08-12T11:33:02;3.85;;;2.90;;
37677;SDS011;23517;50.390;8.616;2023-08-12T11:35:30;3.80;;;2.40;;
37677;SDS011;23517;50.390;8.616;2023-08-12T11:37:57;3.50;;;2.50;;
37677;SDS011;23517;50.390;8.616;2023-08-12T11:40:25;5.70;;;2.65;;
37677;SDS011;23517;50.390;8.616;2023-08-12T11:42:53;3.58;;;2.38;;
37677;SDS011;23517;50.390;8.616;2023-08-12T11:45:22;3.70;;;2.10;;
37677;SDS011;23517;50.390;8.616;2023-08-12T11:47:51;3.47;;;2.35;;
37677;SDS011;23517;50.390;8.616;2023-08-12T11:50:23;6.10;;;2.58;;
37677;SDS011;23517;50.390;8.616;2023-08-12T11:52:52;4.50;;;2.65;;
37677;SDS011;23517;50.390;8.616;2023-08-12T11:55:19;4.68;;;2.28;;
37677;SDS011;23517;50.390;8.616;2023-08-12T11:57:47;2.20;;;2.00;;
37677;SDS011;23517;50.390;8.616;2023-08-12T12:00:14;3.65;;;2.10;;
37677;SDS011;23517;50.390;8.616;2023-08-12T12:02:51;2.70;;;1.98;;
37677;SDS011;23517;50.390;8.616;2023-08-12T12:05:38;1.95;;;1.77;;
37677;SDS011;23517;50.390;8.616;2023-08-12T12:08:04;5.07;;;2.28;;
37677;SDS011;23517;50.390;8.616;2023-08-12T12:10:35;2.42;;;2.00;;
37677;SDS011;23517;50.390;8.616;2023-08-12T12:13:02;3.17;;;2.10;;
37677;SDS011;23517;50.390;8.616;2023-08-12T12:15:31;3.60;;;2.28;;
37677;SDS011;23517;50.390;8.616;2023-08-12T12:18:08;3.50;;;2.15;;
37677;SDS011;23517;50.390;8.616;2023-08-12T12:20:41;3.17;;;2.08;;
37677;SDS011;23517;50.390;8.616;2023-08-12T12:23:20;2.83;;;1.77;;
37677;SDS011;23517;50.390;8.616;2023-08-12T12:25:47;2.55;;;1.95;;
37677;SDS011;23517;50.390;8.616;2023-08-12T12:28:14;2.50;;;1.77;;
37677;SDS011;23517;50.390;8.616;2023-08-12T12:30:41;4.05;;;2.08;;
37677;SDS011;23517;50.390;8.616;2023-08-12T12:33:08;2.50;;;1.88;;
37677;SDS011;23517;50.390;8.616;2023-08-12T12:35:34;5.40;;;2.22;;
37677;SDS011;23517;50.390;8.616;2023-08-12T12:38:20;4.47;;;2.22;;
37677;SDS011;23517;50.390;8.616;2023-08-12T12:40:47;4.50;;;2.30;;
37677;SDS011;23517;50.390;8.616;2023-08-12T12:43:14;4.35;;;2.20;;
37677;SDS011;23517;50.390;8.616;2023-08-12T12:45:41;3.78;;;2.50;;
37677;SDS011;23517;50.390;8.616;2023-08-12T12:48:07;4.03;;;2.05;;
37677;SDS011;23517;50.390;8.616;2023-08-12T12:50:34;4.15;;;2.60;;
37677;SDS011;23517;50.390;8.616;2023-08-12T12:53:01;2.47;;;2.00;;
37677;SDS011;23517;50.390;8.616;2023-08-12T12:55:28;3.72;;;2.40;;
37677;SDS011;23517;50.390;8.616;2023-08-12T12:57:54;2.38;;;2.00;;
37677;SDS011;23517;50.390;8.616;2023-08-12T13:00:21;3.60;;;2.10;;
37677;SDS011;23517;50.390;8.616;2023-08-12T13:02:48;4.75;;;2.17;;
37677;SDS011;23517;50.390;8.616;2023-08-12T13:05:14;3.53;;;2.13;;
37677;SDS011;23517;50.390;8.616;2023-08-12T13:07:41;4.65;;;2.10;;
37677;SDS011;23517;50.390;8.616;2023-08-12T13:10:08;3.33;;;2.10;;
37677;SDS011;23517;50.390;8.616;2023-08-12T13:12:35;5.50;;;1.80;;
37677;SDS011;23517;50.390;8.616;2023-08-12T13:15:03;2.55;;;1.58;;
37677;SDS011;23517;50.390;8.616;2023-08-12T13:17:30;1.83;;;1.40;;
37677;SDS011;23517;50.390;8.616;2023-08-12T13:19:56;3.60;;;1.63;;
37677;SDS011;23517;50.390;8.616;2023-08-12T13:22:23;3.03;;;1.38;;
37677;SDS011;23517;50.390;8.616;2023-08-12T13:24:50;3.08;;;1.50;;
37677;SDS011;23517;50.390;8.616;2023-08-12T13:27:17;4.47;;;1.33;;
37677;SDS011;23517;50.390;8.616;2023-08-12T13:29:44;1.50;;;1.20;;
37677;SDS011;23517;50.390;8.616;2023-08-12T13:32:10;4.97;;;1.63;;
37677;SDS011;23517;50.390;8.616;2023-08-12T13:34:38;2.13;;;1.15;;
37677;SDS011;23517;50.390;8.616;2023-08-12T13:37:05;2.40;;;1.27;;
37677;SDS011;23517;50.390;8.616;2023-08-12T13:39:32;2.90;;;1.52;;
37677;SDS011;23517;50.390;8.616;2023-08-12T13:41:58;1.73;;;1.40;;
37677;SDS011;23517;50.390;8.616;2023-08-12T13:44:25;1.63;;;1.35;;
37677;SDS011;23517;50.390;8.616;2023-08-12T13:46:52;1.23;;;1.13;;
37677;SDS011;23517;50.390;8.616;2023-08-12T13:49:19;3.60;;;1.55;;
37677;SDS011;23517;50.390;8.616;2023-08-12T13:51:45;6.95;;;1.50;;
37677;SDS011;23517;50.390;8.616;2023-08-12T13:54:14;4.10;;;1.25;;
37677;SDS011;23517;50.390;8.616;2023-08-12T13:56:41;1.70;;;1.30;;
37677;SDS011;23517;50.390;8.616;2023-08-12T13:59:08;2.40;;;1.50;;
37677;SDS011;23517;50.390;8.616;2023-08-12T14:01:34;2.92;;;1.38;;
37677;SDS011;23517;50.390;8.616;2023-08-12T14:04:01;3.25;;;1.33;;
37677;SDS011;23517;50.390;8.616;2023-08-12T14:06:28;3.33;;;1.75;;
37677;SDS011;23517;50.390;8.616;2023-08-12T14:08:55;3.65;;;1.55;;
37677;SDS011;23517;50.390;8.616;2023-08-12T14:11:21;2.92;;;1.33;;
37677;SDS011;23517;50.390;8.616;2023-08-12T14:13:48;2.47;;;1.20;;
37677;SDS011;23517;50.390;8.616;2023-08-12T14:16:15;2.20;;;1.80;;
37677;SDS011;23517;50.390;8.616;2023-08-12T14:18:43;4.85;;;2.30;;
37677;SDS011;23517;50.390;8.616;2023-08-12T14:21:10;2.92;;;1.50;;
37677;SDS011;23517;50.390;8.616;2023-08-12T14:23:36;4.78;;;1.80;;
37677;SDS011;23517;50.390;8.616;2023-08-12T14:26:03;3.58;;;1.02;;
37677;SDS011;23517;50.390;8.616;2023-08-12T14:28:30;6.10;;;1.40;;
37677;SDS011;23517;50.390;8.616;2023-08-12T14:30:56;4.28;;;1.40;;
37677;SDS011;23517;50.390;8.616;2023-08-12T14:33:24;1.73;;;1.35;;
37677;SDS011;23517;50.390;8.616;2023-08-12T14:35:51;2.58;;;1.45;;
37677;SDS011;23517;50.390;8.616;2023-08-12T14:38:19;2.22;;;1.70;;
37677;SDS011;23517;50.390;8.616;2023-08-12T14:40:47;1.60;;;1.20;;
37677;SDS011;23517;50.390;8.616;2023-08-12T14:43:14;2.15;;;1.60;;
37677;SDS011;23517;50.390;8.616;2023-08-12T14:45:44;3.85;;;1.77;;
37677;SDS011;23517;50.390;8.616;2023-08-12T14:48:11;5.15;;;1.75;;
37677;SDS011;23517;50.390;8.616;2023-08-12T14:50:38;3.33;;;1.63;;
37677;SDS011;23517;50.390;8.616;2023-08-12T14:53:05;4.50;;;1.60;;
37677;SDS011;23517;50.390;8.616;2023-08-12T14:55:32;1.60;;;1.50;;